createdAt,value
2022-12-24T00:01:38.010Z,100509.91
2022-12-24T00:04:06.461Z,100503.00
2022-12-24T00:06:35.355Z,100511.00
2022-12-24T00:09:03.894Z,100508.59
2022-12-24T00:11:32.360Z,100509.75
2022-12-24T00:14:00.878Z,100506.25
2022-12-24T00:16:29.487Z,100503.91
2022-12-24T00:18:57.983Z,100508.53
2022-12-24T00:21:26.436Z,100505.69
2022-12-24T00:23:54.877Z,100514.19
2022-12-24T00:26:23.324Z,100512.53
2022-12-24T00:28:51.716Z,100518.22
2022-12-24T00:31:20.300Z,100523.16
2022-12-24T00:33:49.159Z,100522.59
2022-12-24T00:36:19.068Z,100522.22
2022-12-24T00:38:47.849Z,100522.03
2022-12-24T00:41:26.159Z,100533.38
2022-12-24T00:44:06.147Z,100534.59
2022-12-24T00:46:35.214Z,100541.84
2022-12-24T00:49:05.107Z,100552.53
2022-12-24T00:51:35.516Z,100559.59
2022-12-24T00:54:04.772Z,100566.44
2022-12-24T00:56:33.939Z,100557.44
2022-12-24T00:59:02.446Z,100562.13
2022-12-24T01:01:30.926Z,100570.41
2022-12-24T01:04:17.971Z,100578.50
2022-12-24T01:06:46.555Z,100580.41
2022-12-24T01:09:15.008Z,100575.19
2022-12-24T01:11:43.594Z,100577.59
2022-12-24T01:14:12.135Z,100576.53
2022-12-24T01:16:40.583Z,100578.75
2022-12-24T01:19:09.223Z,100585.97
2022-12-24T01:21:37.756Z,100589.97
2022-12-24T01:24:06.409Z,100587.38
2022-12-24T01:26:34.747Z,100593.75
2022-12-24T01:29:03.184Z,100597.09
2022-12-24T01:31:31.609Z,100614.53
2022-12-24T01:34:00.208Z,100612.41
2022-12-24T01:36:28.666Z,100602.63
2022-12-24T01:38:57.136Z,100600.84
2022-12-24T01:41:44.624Z,100606.31
2022-12-24T01:44:36.978Z,100620.31
2022-12-24T01:47:16.311Z,100620.50
2022-12-24T01:49:53.563Z,100625.72
2022-12-24T01:52:26.934Z,100618.56
2022-12-24T01:55:01.061Z,100612.41
2022-12-24T01:57:33.384Z,100618.38
2022-12-24T02:00:06.240Z,100609.81
2022-12-24T02:02:35.362Z,100628.63
2022-12-24T02:05:09.935Z,100637.56
2022-12-24T02:07:39.085Z,100634.34
2022-12-24T02:10:10.086Z,100639.94
2022-12-24T02:12:40.487Z,100625.50
2022-12-24T02:15:11.929Z,100640.38
2022-12-24T02:17:54.574Z,100641.22
2022-12-24T02:20:53.807Z,100643.25
2022-12-24T02:23:50.293Z,100652.41
2022-12-24T02:26:30.909Z,100647.53
2022-12-24T02:29:30.293Z,100644.03
2022-12-24T02:32:01.686Z,100642.88
2022-12-24T02:34:40.391Z,100649.06
2022-12-24T02:37:44.578Z,100653.34
2022-12-24T02:40:33.487Z,100662.59
2022-12-24T02:43:08.290Z,100656.28
2022-12-24T02:45:40.247Z,100659.97
2022-12-24T02:48:10.296Z,100660.94
2022-12-24T02:50:38.717Z,100656.13
2022-12-24T02:53:09.701Z,100664.09
2022-12-24T02:56:12.213Z,100668.09
2022-12-24T02:58:59.168Z,100661.72
2022-12-24T03:01:36.831Z,100653.94
2022-12-24T03:04:16.515Z,100663.78
2022-12-24T03:06:58.010Z,100655.47
2022-12-24T03:09:52.409Z,100667.41
2022-12-24T03:12:26.723Z,100667.09
2022-12-24T03:14:55.680Z,100672.63
2022-12-24T03:17:24.173Z,100679.31
2022-12-24T03:19:55.312Z,100668.44
2022-12-24T03:22:25.589Z,100663.72
2022-12-24T03:24:54.032Z,100674.03
2022-12-24T03:27:25.072Z,100674.94
2022-12-24T03:29:53.677Z,100678.94
2022-12-24T03:32:28.767Z,100685.97
2022-12-24T03:34:57.322Z,100682.66
2022-12-24T03:37:26.732Z,100679.41
2022-12-24T03:39:55.302Z,100680.88
2022-12-24T03:42:23.675Z,100688.81
2022-12-24T03:44:52.130Z,100686.66
2022-12-24T03:47:20.575Z,100704.50
2022-12-24T03:49:49.108Z,100709.97
2022-12-24T03:52:17.503Z,100690.72
2022-12-24T03:54:45.912Z,100697.22
2022-12-24T03:57:14.308Z,100696.34
2022-12-24T03:59:42.695Z,100708.78
2022-12-24T04:02:11.236Z,100705.94
2022-12-24T04:04:39.831Z,100700.53
2022-12-24T04:07:08.443Z,100708.38
2022-12-24T04:09:36.986Z,100699.28
2022-12-24T04:12:05.533Z,100708.94
2022-12-24T04:14:34.031Z,100715.44
2022-12-24T04:17:02.551Z,100718.16
2022-12-24T04:19:30.998Z,100716.63
2022-12-24T04:21:59.500Z,100713.66
2022-12-24T04:24:27.975Z,100721.09
2022-12-24T04:26:56.422Z,100729.59
2022-12-24T04:29:25.009Z,100726.84
2022-12-24T04:31:53.588Z,100730.66
2022-12-24T04:34:22.113Z,100732.53
2022-12-24T04:36:50.522Z,100729.31
2022-12-24T04:39:18.938Z,100731.97
2022-12-24T04:41:47.459Z,100739.25
2022-12-24T04:44:15.876Z,100733.38
2022-12-24T04:46:44.452Z,100736.31
2022-12-24T04:49:12.988Z,100736.50
2022-12-24T04:51:41.386Z,100725.59
2022-12-24T04:54:09.933Z,100722.44
2022-12-24T04:56:38.483Z,100734.72
2022-12-24T04:59:06.938Z,100739.41
2022-12-24T05:01:35.613Z,100739.34
2022-12-24T05:04:04.170Z,100733.81
2022-12-24T05:06:33.140Z,100741.91
2022-12-24T05:09:01.694Z,100739.69
2022-12-24T05:11:30.828Z,100750.44
2022-12-24T05:13:59.449Z,100749.56
2022-12-24T05:16:27.926Z,100756.50
2022-12-24T05:18:56.363Z,100746.63
2022-12-24T05:21:25.343Z,100749.03
2022-12-24T05:24:12.445Z,100742.78
2022-12-24T05:26:44.808Z,100747.56
2022-12-24T05:29:13.373Z,100755.69
2022-12-24T05:31:43.532Z,100751.22
2022-12-24T05:34:13.715Z,100741.28
2022-12-24T05:36:43.134Z,100742.69
2022-12-24T05:39:16.290Z,100747.56
2022-12-24T05:41:46.078Z,100754.19
2022-12-24T05:44:16.226Z,100758.38
2022-12-24T05:46:45.270Z,100767.69
2022-12-24T05:49:14.322Z,100780.75
2022-12-24T05:51:42.729Z,100786.53
2022-12-24T05:54:11.492Z,100786.00
2022-12-24T05:56:39.922Z,100787.09
2022-12-24T05:59:08.350Z,100786.84
2022-12-24T06:01:36.831Z,100786.91
2022-12-24T06:04:05.424Z,100792.69
2022-12-24T06:06:33.883Z,100791.41
2022-12-24T06:09:02.268Z,100790.47
2022-12-24T06:11:31.045Z,100793.09
2022-12-24T06:13:59.534Z,100792.00
2022-12-24T06:16:28.108Z,100795.78
2022-12-24T06:18:56.598Z,100792.25
2022-12-24T06:21:25.109Z,100802.03
2022-12-24T06:23:53.531Z,100796.09
2022-12-24T06:26:22.930Z,100796.75
2022-12-24T06:28:52.290Z,100795.84
2022-12-24T06:31:23.248Z,100807.41
2022-12-24T06:33:52.740Z,100806.28
2022-12-24T06:36:25.519Z,100811.13
2022-12-24T06:38:55.115Z,100817.28
2022-12-24T06:41:24.159Z,100815.91
2022-12-24T06:43:53.316Z,100817.00
2022-12-24T06:46:22.258Z,100824.59
2022-12-24T06:48:50.937Z,100818.31
2022-12-24T06:51:19.875Z,100827.88
2022-12-24T06:53:50.755Z,100832.63
2022-12-24T06:56:20.177Z,100835.56
2022-12-24T06:58:49.159Z,100834.69
2022-12-24T07:01:19.550Z,100835.50
2022-12-24T07:03:48.582Z,100835.75
2022-12-24T07:06:25.372Z,100844.56
2022-12-24T07:08:53.895Z,100837.31
2022-12-24T07:11:24.176Z,100854.53
2022-12-24T07:13:52.677Z,100841.94
2022-12-24T07:16:21.790Z,100842.59
2022-12-24T07:18:50.361Z,100851.03
2022-12-24T07:21:18.863Z,100850.94
2022-12-24T07:23:47.426Z,100842.97
2022-12-24T07:26:15.800Z,100859.06
2022-12-24T07:28:44.331Z,100864.53
2022-12-24T07:31:12.818Z,100864.28
2022-12-24T07:33:41.386Z,100874.84
2022-12-24T07:36:15.866Z,100871.41
2022-12-24T07:38:44.536Z,100880.06
2022-12-24T07:41:13.428Z,100879.63
2022-12-24T07:43:41.811Z,100884.72
2022-12-24T07:46:10.412Z,100874.41
2022-12-24T07:48:39.013Z,100888.59
2022-12-24T07:51:07.574Z,100893.28
2022-12-24T07:53:36.070Z,100902.88
2022-12-24T07:56:09.027Z,100892.25
2022-12-24T07:58:41.343Z,100903.72
2022-12-24T08:01:10.348Z,100909.09
2022-12-24T08:03:39.345Z,100925.94
2022-12-24T08:06:08.371Z,100918.97
2022-12-24T08:08:37.697Z,100921.19
2022-12-24T08:11:06.973Z,100933.00
2022-12-24T08:13:35.695Z,100932.53
2022-12-24T08:16:05.406Z,100946.25
2022-12-24T08:18:34.011Z,100946.03
2022-12-24T08:21:02.966Z,100958.88
2022-12-24T08:23:31.391Z,100942.47
2022-12-24T08:25:59.998Z,100959.53
2022-12-24T08:28:29.278Z,100960.84
2022-12-24T08:30:59.024Z,100959.34
2022-12-24T08:33:27.545Z,100958.34
2022-12-24T08:35:56.296Z,100962.31
2022-12-24T08:38:24.825Z,100974.16
2022-12-24T08:40:54.258Z,100960.03
2022-12-24T08:43:23.152Z,100968.94
2022-12-24T08:45:51.802Z,100979.38
2022-12-24T08:48:20.438Z,100983.47
2022-12-24T08:50:48.924Z,100976.31
2022-12-24T08:53:17.451Z,100982.88
2022-12-24T08:55:49.009Z,100985.22
2022-12-24T08:58:22.302Z,100985.50
2022-12-24T09:00:50.767Z,100989.59
2022-12-24T09:03:25.249Z,100988.00
2022-12-24T09:05:56.196Z,101000.28
2022-12-24T09:08:24.689Z,101003.28
2022-12-24T09:10:53.203Z,101008.19
2022-12-24T09:13:21.606Z,101016.22
2022-12-24T09:15:54.948Z,101018.94
2022-12-24T09:18:25.505Z,101026.31
2022-12-24T09:21:06.412Z,101031.78
2022-12-24T09:23:36.163Z,101037.25
2022-12-24T09:26:06.667Z,101033.72
2022-12-24T09:28:35.740Z,101047.31
2022-12-24T09:31:05.868Z,101047.28
2022-12-24T09:33:37.792Z,101053.03
2022-12-24T09:36:07.012Z,101041.94
2022-12-24T09:38:36.335Z,101056.06
2022-12-24T09:41:13.183Z,101047.41
2022-12-24T09:43:48.578Z,101048.97
2022-12-24T09:46:30.730Z,101056.69
2022-12-24T09:49:06.047Z,101063.31
2022-12-24T09:52:02.071Z,101066.00
2022-12-24T09:54:52.944Z,101070.38
2022-12-24T09:57:34.587Z,101080.31
2022-12-24T10:00:04.850Z,101083.03
2022-12-24T10:02:33.673Z,101071.72
2022-12-24T10:05:02.337Z,101086.91
2022-12-24T10:07:48.213Z,101090.41
2022-12-24T10:10:37.512Z,101094.81
2022-12-24T10:13:23.181Z,101088.25
2022-12-24T10:16:18.360Z,101086.28
2022-12-24T10:19:02.755Z,101091.97
2022-12-24T10:21:44.233Z,101084.69
2022-12-24T10:24:24.229Z,101091.91
2022-12-24T10:27:17.104Z,101082.34
2022-12-24T10:29:49.570Z,101086.41
2022-12-24T10:32:36.170Z,101095.59
2022-12-24T10:35:17.832Z,101087.53
2022-12-24T10:37:48.624Z,101096.84
2022-12-24T10:40:28.653Z,101095.97
2022-12-24T10:42:57.415Z,101093.09
2022-12-24T10:45:35.590Z,101097.69
2022-12-24T10:48:09.440Z,101098.16
2022-12-24T10:50:43.148Z,101097.69
2022-12-24T10:53:21.406Z,101091.44
2022-12-24T10:55:50.055Z,101090.53
2022-12-24T10:58:20.100Z,101095.81
2022-12-24T11:00:53.073Z,101087.94
2022-12-24T11:03:30.646Z,101094.44
2022-12-24T11:06:20.943Z,101093.22
2022-12-24T11:08:50.459Z,101107.31
2022-12-24T11:11:21.127Z,101096.06
2022-12-24T11:13:50.597Z,101105.31
2022-12-24T11:16:31.924Z,101104.88
2022-12-24T11:19:04.156Z,101109.91
2022-12-24T11:21:37.761Z,101103.78
2022-12-24T11:24:12.261Z,101106.69
2022-12-24T11:26:42.953Z,101105.88
2022-12-24T11:29:28.501Z,101108.28
2022-12-24T11:32:20.265Z,101106.25
2022-12-24T11:34:49.094Z,101105.13
2022-12-24T11:37:21.973Z,101105.69
2022-12-24T11:40:02.044Z,101112.03
2022-12-24T11:42:35.258Z,101114.47
2022-12-24T11:45:36.111Z,101119.38
2022-12-24T11:48:26.291Z,101125.25
2022-12-24T11:51:06.186Z,101126.47
2022-12-24T11:53:42.062Z,101126.75
2022-12-24T11:56:30.976Z,101124.41
2022-12-24T11:59:09.547Z,101124.00
2022-12-24T12:01:49.303Z,101117.06
2022-12-24T12:04:22.875Z,101102.44
2022-12-24T12:07:00.299Z,101108.41
2022-12-24T12:09:32.841Z,101119.28
2022-12-24T12:12:09.681Z,101114.75
2022-12-24T12:14:48.089Z,101109.78
2022-12-24T12:17:39.746Z,101120.41
2022-12-24T12:20:18.784Z,101123.13
2022-12-24T12:22:56.524Z,101115.19
2022-12-24T12:25:37.942Z,101127.50
2022-12-24T12:28:18.659Z,101129.06
2022-12-24T12:30:54.359Z,101128.69
2022-12-24T12:33:29.579Z,101142.78
2022-12-24T12:36:01.890Z,101140.91
2022-12-24T12:38:30.697Z,101141.22
2022-12-24T12:41:11.917Z,101160.84
2022-12-24T12:43:49.310Z,101143.69
2022-12-24T12:46:41.741Z,101151.97
2022-12-24T12:49:52.032Z,101147.03
2022-12-24T12:52:49.180Z,101146.56
2022-12-24T12:55:52.084Z,101147.81
2022-12-24T12:58:27.475Z,101154.13
2022-12-24T13:01:05.346Z,101156.19
2022-12-24T13:03:42.673Z,101153.22
2022-12-24T13:06:33.781Z,101179.25
2022-12-24T13:09:25.643Z,101164.84
2022-12-24T13:12:03.252Z,101169.91
2022-12-24T13:14:43.795Z,101166.34
2022-12-24T13:17:46.409Z,101154.03
2022-12-24T13:20:30.688Z,101155.09
2022-12-24T13:23:08.667Z,101168.50
2022-12-24T13:25:41.450Z,101171.03
2022-12-24T13:28:22.795Z,101164.38
2022-12-24T13:31:16.983Z,101180.47
2022-12-24T13:33:47.486Z,101172.28
2022-12-24T13:36:17.685Z,101172.03
2022-12-24T13:38:59.951Z,101173.97
2022-12-24T13:41:39.257Z,101176.00
2022-12-24T13:44:14.748Z,101173.66
2022-12-24T13:47:01.108Z,101182.16
2022-12-24T13:49:49.599Z,101171.34
2022-12-24T13:52:30.501Z,101184.50
2022-12-24T13:54:59.084Z,101183.06
2022-12-24T13:58:07.722Z,101184.88
2022-12-24T14:00:51.569Z,101190.59
2022-12-24T14:03:28.521Z,101187.03
2022-12-24T14:06:05.473Z,101193.78
2022-12-24T14:08:40.235Z,101198.31
2022-12-24T14:11:08.613Z,101202.66
2022-12-24T14:13:40.019Z,101208.44
2022-12-24T14:16:12.993Z,101209.31
2022-12-24T14:18:50.580Z,101216.03
2022-12-24T14:21:28.488Z,101213.94
2022-12-24T14:24:05.281Z,101216.81
2022-12-24T14:26:36.374Z,101210.16
2022-12-24T14:29:25.048Z,101206.72
2022-12-24T14:31:56.595Z,101215.47
2022-12-24T14:34:26.424Z,101228.13
2022-12-24T14:36:56.363Z,101223.47
2022-12-24T14:39:33.909Z,101225.81
2022-12-24T14:42:23.602Z,101235.31
2022-12-24T14:45:14.919Z,101229.16
2022-12-24T14:47:49.192Z,101225.16
2022-12-24T14:50:26.871Z,101229.63
2022-12-24T14:53:19.946Z,101234.13
2022-12-24T14:55:49.645Z,101237.84
2022-12-24T14:58:30.520Z,101242.91
2022-12-24T15:01:02.077Z,101241.59
2022-12-24T15:03:33.109Z,101261.16
2022-12-24T15:06:09.181Z,101257.06
2022-12-24T15:08:43.824Z,101248.28
2022-12-24T15:11:19.377Z,101261.34
2022-12-24T15:13:54.807Z,101263.28
2022-12-24T15:16:27.112Z,101262.84
2022-12-24T15:18:59.750Z,101259.59
2022-12-24T15:21:41.207Z,101265.53
2022-12-24T15:24:33.174Z,101260.69
2022-12-24T15:27:16.049Z,101258.34
2022-12-24T15:29:46.971Z,101258.53
2022-12-24T15:32:18.954Z,101257.50
2022-12-24T15:34:50.524Z,101264.22
2022-12-24T15:37:29.612Z,101262.50
2022-12-24T15:40:09.018Z,101273.91
2022-12-24T15:42:42.518Z,101266.59
2022-12-24T15:45:28.788Z,101280.88
2022-12-24T15:48:00.459Z,101271.34
2022-12-24T15:50:32.933Z,101268.03
2022-12-24T15:53:21.097Z,101278.84
2022-12-24T15:56:12.112Z,101272.06
2022-12-24T15:58:43.353Z,101275.56
2022-12-24T16:01:15.585Z,101282.41
2022-12-24T16:03:50.316Z,101276.16
2022-12-24T16:06:20.012Z,101284.75
2022-12-24T16:08:50.930Z,101279.03
2022-12-24T16:11:20.789Z,101282.16
2022-12-24T16:13:49.135Z,101276.94
2022-12-24T16:16:22.539Z,101275.22
2022-12-24T16:18:56.991Z,101268.63
2022-12-24T16:21:31.987Z,101274.84
2022-12-24T16:24:22.535Z,101279.88
2022-12-24T16:26:51.809Z,101292.25
2022-12-24T16:29:22.404Z,101289.38
2022-12-24T16:31:56.232Z,101284.69
2022-12-24T16:34:30.117Z,101290.06
2022-12-24T16:37:00.287Z,101288.25
2022-12-24T16:39:33.838Z,101293.16
2022-12-24T16:42:22.611Z,101286.25
2022-12-24T16:44:53.473Z,101287.63
2022-12-24T16:47:25.786Z,101287.72
2022-12-24T16:49:54.350Z,101292.94
2022-12-24T16:52:28.994Z,101289.59
2022-12-24T16:54:57.777Z,101294.22
2022-12-24T16:57:26.769Z,101296.38
2022-12-24T16:59:55.229Z,101291.50
2022-12-24T17:02:25.424Z,101287.59
2022-12-24T17:04:55.166Z,101291.47
2022-12-24T17:07:23.722Z,101282.78
2022-12-24T17:09:52.269Z,101290.63
2022-12-24T17:12:21.641Z,101292.81
2022-12-24T17:14:50.111Z,101299.66
2022-12-24T17:17:29.684Z,101294.25
2022-12-24T17:19:58.499Z,101301.06
2022-12-24T17:22:28.047Z,101292.69
2022-12-24T17:24:56.912Z,101294.78
2022-12-24T17:27:25.420Z,101284.97
2022-12-24T17:29:54.048Z,101295.69
2022-12-24T17:32:22.573Z,101304.56
2022-12-24T17:34:50.966Z,101297.28
2022-12-24T17:37:19.668Z,101308.63
2022-12-24T17:39:49.144Z,101308.81
2022-12-24T17:42:17.653Z,101316.97
2022-12-24T17:44:46.161Z,101318.19
2022-12-24T17:47:14.741Z,101318.38
2022-12-24T17:49:43.234Z,101297.69
2022-12-24T17:52:12.206Z,101306.63
2022-12-24T17:54:40.665Z,101303.44
2022-12-24T17:57:09.189Z,101302.19
2022-12-24T17:59:37.692Z,101299.59
2022-12-24T18:02:06.735Z,101291.69
2022-12-24T18:04:35.275Z,101293.38
2022-12-24T18:07:03.774Z,101301.66
2022-12-24T18:09:32.343Z,101297.78
2022-12-24T18:12:01.146Z,101297.63
2022-12-24T18:14:29.579Z,101291.75
2022-12-24T18:16:58.038Z,101294.78
2022-12-24T18:19:26.705Z,101288.53
2022-12-24T18:21:55.219Z,101291.28
2022-12-24T18:24:23.696Z,101295.44
2022-12-24T18:26:52.158Z,101295.69
2022-12-24T18:29:20.703Z,101302.72
2022-12-24T18:31:49.218Z,101300.78
2022-12-24T18:34:18.301Z,101305.31
2022-12-24T18:36:52.888Z,101304.31
2022-12-24T18:39:23.548Z,101299.50
2022-12-24T18:41:52.147Z,101294.31
2022-12-24T18:44:25.408Z,101285.81
2022-12-24T18:46:54.405Z,101289.13
2022-12-24T18:49:23.027Z,101288.13
2022-12-24T18:51:51.547Z,101287.16
2022-12-24T18:54:20.278Z,101287.63
2022-12-24T18:56:51.872Z,101298.56
2022-12-24T18:59:20.359Z,101294.75
2022-12-24T19:01:49.126Z,101298.19
2022-12-24T19:04:17.880Z,101298.13
2022-12-24T19:06:52.742Z,101301.50
2022-12-24T19:09:22.481Z,101307.22
2022-12-24T19:11:50.942Z,101299.84
2022-12-24T19:14:22.683Z,101293.84
2022-12-24T19:16:51.220Z,101297.75
2022-12-24T19:19:23.900Z,101300.53
2022-12-24T19:21:52.362Z,101293.78
2022-12-24T19:24:20.851Z,101301.72
2022-12-24T19:26:49.471Z,101301.72
2022-12-24T19:29:17.956Z,101299.50
2022-12-24T19:31:47.495Z,101307.09
2022-12-24T19:34:16.133Z,101303.53
2022-12-24T19:36:44.663Z,101311.22
2022-12-24T19:39:13.125Z,101303.84
2022-12-24T19:41:41.960Z,101307.09
2022-12-24T19:44:11.146Z,101303.72
2022-12-24T19:46:40.057Z,101313.97
2022-12-24T19:49:11.288Z,101311.34
2022-12-24T19:51:39.876Z,101305.56
2022-12-24T19:54:18.685Z,101315.31
2022-12-24T19:56:47.754Z,101316.00
2022-12-24T19:59:16.426Z,101310.97
2022-12-24T20:01:46.982Z,101308.94
2022-12-24T20:04:18.382Z,101329.16
2022-12-24T20:06:49.815Z,101331.69
2022-12-24T20:09:20.782Z,101330.03
2022-12-24T20:11:52.351Z,101327.84
2022-12-24T20:14:20.757Z,101324.13
2022-12-24T20:16:50.000Z,101337.09
2022-12-24T20:19:18.492Z,101327.63
2022-12-24T20:21:46.969Z,101328.47
2022-12-24T20:24:16.020Z,101324.63
2022-12-24T20:26:44.511Z,101341.00
2022-12-24T20:29:13.045Z,101354.50
2022-12-24T20:31:41.709Z,101339.81
2022-12-24T20:34:10.583Z,101344.72
2022-12-24T20:36:39.212Z,101338.50
2022-12-24T20:39:07.915Z,101350.13
2022-12-24T20:41:36.523Z,101355.16
2022-12-24T20:44:05.619Z,101345.72
2022-12-24T20:46:34.216Z,101348.78
2022-12-24T20:49:02.812Z,101342.88
2022-12-24T20:51:31.462Z,101343.56
2022-12-24T20:54:01.873Z,101338.19
2022-12-24T20:56:31.121Z,101327.06
2022-12-24T20:59:01.441Z,101323.47
2022-12-24T21:01:30.247Z,101325.53
2022-12-24T21:04:04.234Z,101316.41
2022-12-24T21:06:34.814Z,101326.41
2022-12-24T21:09:04.107Z,101329.53
2022-12-24T21:11:51.330Z,101332.25
2022-12-24T21:14:23.548Z,101339.38
2022-12-24T21:16:52.796Z,101332.69
2022-12-24T21:19:24.491Z,101337.44
2022-12-24T21:21:53.272Z,101330.59
2022-12-24T21:24:21.913Z,101316.78
2022-12-24T21:26:50.389Z,101328.22
2022-12-24T21:29:18.877Z,101321.00
2022-12-24T21:31:47.464Z,101306.66
2022-12-24T21:34:15.883Z,101303.31
2022-12-24T21:36:44.246Z,101304.31
2022-12-24T21:39:12.752Z,101296.88
2022-12-24T21:41:41.703Z,101291.00
2022-12-24T21:44:10.230Z,101286.56
2022-12-24T21:46:38.696Z,101277.75
2022-12-24T21:49:28.369Z,101267.03
2022-12-24T21:51:58.824Z,101263.00
2022-12-24T21:54:28.375Z,101255.38
2022-12-24T21:57:18.956Z,101255.59
2022-12-24T21:59:50.330Z,101258.31
2022-12-24T22:02:20.386Z,101259.03
2022-12-24T22:04:48.892Z,101264.59
2022-12-24T22:07:41.975Z,101262.91
2022-12-24T22:10:31.852Z,101252.13
2022-12-24T22:13:03.554Z,101251.81
2022-12-24T22:15:32.331Z,101244.72
2022-12-24T22:18:00.714Z,101246.78
2022-12-24T22:20:29.262Z,101246.81
2022-12-24T22:22:57.735Z,101255.22
2022-12-24T22:25:28.108Z,101260.06
2022-12-24T22:27:56.708Z,101258.28
2022-12-24T22:30:25.099Z,101275.41
2022-12-24T22:32:53.527Z,101277.78
2022-12-24T22:35:21.909Z,101269.53
2022-12-24T22:37:54.572Z,101269.38
2022-12-24T22:40:28.385Z,101269.53
2022-12-24T22:42:56.867Z,101265.00
2022-12-24T22:45:25.271Z,101264.00
2022-12-24T22:47:53.787Z,101261.81
2022-12-24T22:50:22.891Z,101256.94
2022-12-24T22:52:52.560Z,101254.88
2022-12-24T22:55:21.792Z,101253.84
2022-12-24T22:57:50.209Z,101258.25
2022-12-24T23:00:40.487Z,101256.38
2022-12-24T23:03:10.223Z,101261.47
2022-12-24T23:05:39.163Z,101269.53
2022-12-24T23:08:08.197Z,101265.13
2022-12-24T23:10:37.350Z,101271.53
2022-12-24T23:13:44.834Z,101276.06
2022-12-24T23:16:13.288Z,101285.19
2022-12-24T23:18:41.671Z,101280.47
2022-12-24T23:21:10.151Z,101283.28
2022-12-24T23:23:38.618Z,101288.50
2022-12-24T23:26:12.956Z,101284.13
2022-12-24T23:28:41.667Z,101290.38
2022-12-24T23:31:10.758Z,101296.94
2022-12-24T23:33:39.374Z,101301.63
2022-12-24T23:36:08.804Z,101303.78
2022-12-24T23:38:37.405Z,101296.22
2022-12-24T23:41:08.032Z,101290.81
2022-12-24T23:43:37.535Z,101290.13
2022-12-24T23:46:06.177Z,101289.44
2022-12-24T23:48:34.678Z,101291.28
2022-12-24T23:51:13.374Z,101283.00
2022-12-24T23:53:41.911Z,101294.97
2022-12-24T23:56:11.706Z,101289.44
2022-12-24T23:58:41.506Z,101289.41
